createdAt,value
2019-02-25T00:02:44.942Z,52.50
2019-02-25T00:05:32.964Z,52.90
2019-02-25T00:08:20.983Z,53.30
2019-02-25T00:11:09.039Z,53.20
2019-02-25T00:13:56.830Z,52.50
2019-02-25T00:16:45.161Z,52.00
2019-02-25T00:19:33.172Z,51.70
2019-02-25T00:22:21.438Z,51.30
2019-02-25T00:25:09.254Z,51.10
2019-02-25T00:27:57.697Z,51.60
2019-02-25T00:30:45.692Z,52.30
2019-02-25T00:33:34.361Z,52.60
2019-02-25T00:36:22.154Z,53.00
2019-02-25T00:39:10.874Z,53.00
2019-02-25T00:41:59.206Z,53.40
2019-02-25T00:44:47.906Z,53.80
2019-02-25T00:47:36.670Z,54.00
2019-02-25T00:50:24.774Z,54.10
2019-02-25T00:53:13.322Z,54.30
2019-02-25T00:56:01.445Z,54.40
2019-02-25T00:58:49.809Z,54.60
2019-02-25T01:01:37.439Z,54.40
2019-02-25T01:04:25.870Z,54.70
2019-02-25T01:07:13.650Z,54.90
2019-02-25T01:10:02.167Z,54.80
2019-02-25T01:12:50.350Z,54.90
2019-02-25T01:15:43.590Z,54.70
2019-02-25T01:18:31.999Z,54.90
2019-02-25T01:21:19.735Z,54.80
2019-02-25T01:24:08.837Z,54.60
2019-02-25T01:26:56.686Z,54.60
2019-02-25T01:29:45.207Z,54.80
2019-02-25T01:32:33.326Z,54.70
2019-02-25T01:35:21.830Z,54.90
2019-02-25T01:38:10.313Z,55.20
2019-02-25T01:40:58.127Z,55.10
2019-02-25T01:43:45.825Z,55.00
2019-02-25T01:46:33.883Z,54.40
2019-02-25T01:49:21.958Z,54.50
2019-02-25T01:52:09.712Z,54.50
2019-02-25T01:54:57.846Z,54.20
2019-02-25T01:57:45.878Z,54.10
2019-02-25T02:00:34.204Z,54.10
2019-02-25T02:03:22.333Z,54.10
2019-02-25T02:06:10.920Z,54.10
2019-02-25T02:08:59.461Z,53.70
2019-02-25T02:11:47.810Z,54.00
2019-02-25T02:14:35.788Z,54.00
2019-02-25T02:17:23.891Z,54.20
2019-02-25T02:20:13.445Z,54.90
2019-02-25T02:23:01.475Z,55.30
2019-02-25T02:25:49.672Z,55.30
2019-02-25T02:28:38.111Z,55.20
2019-02-25T02:31:26.363Z,55.90
2019-02-25T02:34:15.186Z,56.60
2019-02-25T02:37:02.988Z,56.70
2019-02-25T02:39:51.414Z,56.60
2019-02-25T02:42:40.270Z,56.40
2019-02-25T02:45:34.809Z,56.40
2019-02-25T02:48:29.826Z,56.20
2019-02-25T02:51:17.867Z,56.40
2019-02-25T02:54:06.190Z,56.50
2019-02-25T02:56:54.012Z,56.40
2019-02-25T02:59:42.553Z,56.80
2019-02-25T03:02:30.488Z,56.90
2019-02-25T03:05:18.982Z,57.10
2019-02-25T03:08:07.153Z,56.90
2019-02-25T03:10:55.176Z,57.40
2019-02-25T03:13:43.383Z,57.70
2019-02-25T03:16:30.977Z,57.90
2019-02-25T03:19:19.243Z,58.00
2019-02-25T03:22:07.875Z,58.00
2019-02-25T03:24:55.431Z,58.20
2019-02-25T03:27:44.023Z,58.30
2019-02-25T03:30:34.939Z,58.40
2019-02-25T03:33:22.701Z,58.50
2019-02-25T03:36:10.983Z,58.80
2019-02-25T03:38:59.324Z,58.80
2019-02-25T03:41:47.709Z,58.80
2019-02-25T03:44:36.563Z,58.80
2019-02-25T03:47:24.679Z,58.70
2019-02-25T03:50:13.421Z,58.60
2019-02-25T03:53:01.331Z,58.50
2019-02-25T03:55:49.621Z,58.30
2019-02-25T03:58:37.742Z,58.40
2019-02-25T04:01:26.198Z,58.80
2019-02-25T04:04:13.836Z,58.60
2019-02-25T04:07:02.393Z,58.40
2019-02-25T04:09:50.465Z,58.70
2019-02-25T04:12:38.890Z,59.20
2019-02-25T04:18:32.283Z,59.00
2019-02-25T04:21:20.768Z,58.80
2019-02-25T04:24:09.153Z,58.10
2019-02-25T04:26:56.756Z,58.20
2019-02-25T04:29:45.510Z,59.00
2019-02-25T04:32:36.119Z,59.40
2019-02-25T04:35:24.739Z,59.70
2019-02-25T04:38:12.786Z,59.80
2019-02-25T04:41:00.971Z,59.70
2019-02-25T04:43:48.714Z,59.90
2019-02-25T04:46:36.808Z,60.40
2019-02-25T04:49:24.439Z,60.70
2019-02-25T04:52:12.578Z,61.00
2019-02-25T04:55:00.979Z,61.00
2019-02-25T04:57:49.260Z,61.40
2019-02-25T05:00:36.991Z,61.20
2019-02-25T05:03:25.474Z,60.60
2019-02-25T05:06:13.480Z,60.70
2019-02-25T05:09:01.602Z,60.90
2019-02-25T05:11:49.376Z,61.20
2019-02-25T05:14:37.151Z,61.00
2019-02-25T05:17:25.185Z,60.90
2019-02-25T05:20:13.604Z,60.90
2019-02-25T05:23:01.855Z,61.00
2019-02-25T05:25:50.065Z,61.90
2019-02-25T05:28:37.617Z,62.00
2019-02-25T05:31:26.326Z,61.60
2019-02-25T05:34:14.266Z,61.50
2019-02-25T05:37:02.251Z,61.70
2019-02-25T05:39:50.021Z,62.10
2019-02-25T05:42:38.383Z,62.00
2019-02-25T05:45:26.029Z,62.20
2019-02-25T05:48:14.661Z,62.00
2019-02-25T05:51:02.829Z,61.70
2019-02-25T05:53:51.194Z,61.80
2019-02-25T05:56:39.195Z,62.30
2019-02-25T05:59:27.543Z,62.60
2019-02-25T06:02:15.684Z,62.50
2019-02-25T06:05:04.329Z,62.80
2019-02-25T06:07:52.799Z,62.90
2019-02-25T06:10:40.555Z,63.20
2019-02-25T06:13:28.507Z,63.20
2019-02-25T06:16:16.715Z,63.60
2019-02-25T06:19:06.234Z,64.00
2019-02-25T06:21:54.391Z,64.10
2019-02-25T06:24:42.073Z,64.00
2019-02-25T06:27:30.988Z,64.30
2019-02-25T06:30:19.074Z,64.30
2019-02-25T06:33:07.953Z,64.30
2019-02-25T06:35:55.673Z,64.50
2019-02-25T06:38:43.891Z,64.60
2019-02-25T06:41:31.708Z,64.30
2019-02-25T06:44:19.899Z,64.20
2019-02-25T06:47:08.801Z,64.10
2019-02-25T06:49:57.026Z,63.90
2019-02-25T06:52:45.206Z,64.00
2019-02-25T06:55:33.106Z,63.60
2019-02-25T06:58:23.111Z,63.70
2019-02-25T07:01:11.922Z,63.80
2019-02-25T07:04:30.850Z,63.60
2019-02-25T07:07:46.913Z,63.10
2019-02-25T07:10:42.646Z,62.40
2019-02-25T07:13:50.074Z,61.70
2019-02-25T07:16:47.851Z,61.50
2019-02-25T07:19:58.683Z,61.80
2019-02-25T07:23:06.378Z,61.70
2019-02-25T07:26:04.702Z,61.80
2019-02-25T07:29:11.326Z,61.70
2019-02-25T07:32:17.518Z,61.50
2019-02-25T07:35:26.307Z,61.20
2019-02-25T07:38:47.628Z,61.10
2019-02-25T07:41:44.320Z,60.70
2019-02-25T07:44:47.499Z,60.10
2019-02-25T07:47:45.623Z,58.90
2019-02-25T07:50:58.818Z,58.10
2019-02-25T07:54:04.284Z,57.30
2019-02-25T07:57:08.256Z,56.30
2019-02-25T08:00:33.638Z,55.70
2019-02-25T08:03:28.059Z,55.70
2019-02-25T08:06:29.546Z,55.70
2019-02-25T08:09:28.109Z,55.70
2019-02-25T08:12:37.280Z,55.70
2019-02-25T08:15:30.598Z,55.60
2019-02-25T08:18:55.842Z,53.90
2019-02-25T08:22:03.051Z,53.50
2019-02-25T08:25:07.888Z,52.80
2019-02-25T08:28:13.082Z,51.50
2019-02-25T08:31:23.526Z,50.80
2019-02-25T08:34:27.646Z,49.80
2019-02-25T08:37:51.902Z,48.90
2019-02-25T08:41:16.099Z,47.90
2019-02-25T08:44:21.698Z,49.00
2019-02-25T08:47:17.089Z,48.50
2019-02-25T08:50:08.133Z,47.80
2019-02-25T08:52:57.318Z,47.00
2019-02-25T08:55:45.603Z,46.70
2019-02-25T08:58:34.436Z,45.50
2019-02-25T09:01:23.635Z,45.40
2019-02-25T09:04:12.925Z,46.10
2019-02-25T09:07:02.407Z,45.40
2019-02-25T09:09:51.281Z,45.60
2019-02-25T09:12:39.773Z,45.00
2019-02-25T09:15:28.443Z,44.70
2019-02-25T09:18:17.532Z,43.50
2019-02-25T09:21:08.080Z,42.70
2019-02-25T09:23:56.592Z,42.40
2019-02-25T09:26:44.776Z,41.80
2019-02-25T09:29:33.698Z,40.40
2019-02-25T09:32:22.967Z,39.30
2019-02-25T09:35:10.835Z,39.40
2019-02-25T09:38:00.324Z,39.10
2019-02-25T09:40:48.701Z,38.00
2019-02-25T09:43:36.887Z,38.50
2019-02-25T09:46:26.020Z,39.00
2019-02-25T09:49:14.224Z,38.40
2019-02-25T09:52:02.975Z,37.80
2019-02-25T09:54:51.962Z,37.30
2019-02-25T09:57:41.452Z,37.10
2019-02-25T10:00:29.747Z,37.50
2019-02-25T10:03:18.559Z,36.50
2019-02-25T10:06:07.875Z,35.50
2019-02-25T10:08:57.811Z,35.20
2019-02-25T10:11:46.328Z,35.20
2019-02-25T10:14:34.886Z,34.90
2019-02-25T10:17:24.112Z,34.90
2019-02-25T10:20:12.191Z,34.70
2019-02-25T10:23:00.794Z,33.90
2019-02-25T10:25:49.054Z,33.80
2019-02-25T10:28:37.082Z,33.00
2019-02-25T10:31:25.307Z,32.80
2019-02-25T10:34:13.706Z,32.60
2019-02-25T10:37:01.312Z,32.30
2019-02-25T10:39:49.587Z,32.30
2019-02-25T10:42:38.683Z,32.00
2019-02-25T10:45:28.549Z,31.40
2019-02-25T10:48:17.709Z,31.00
2019-02-25T10:51:07.637Z,31.10
2019-02-25T10:53:57.706Z,31.00
2019-02-25T10:56:57.525Z,30.00
2019-02-25T10:59:46.147Z,29.90
2019-02-25T11:02:43.858Z,29.70
2019-02-25T11:05:27.337Z,29.40
2019-02-25T11:08:15.895Z,29.30
2019-02-25T11:11:08.187Z,29.00
2019-02-25T11:13:56.218Z,29.40
2019-02-25T11:16:45.950Z,29.40
2019-02-25T11:19:34.846Z,29.30
2019-02-25T11:22:22.831Z,29.00
2019-02-25T11:25:11.296Z,28.80
2019-02-25T11:27:59.463Z,28.70
2019-02-25T11:30:49.768Z,27.80
2019-02-25T11:33:37.899Z,28.20
2019-02-25T11:36:26.374Z,28.00
2019-02-25T11:39:16.750Z,28.50
2019-02-25T11:42:06.098Z,28.20
2019-02-25T11:44:56.042Z,27.40
2019-02-25T11:47:43.552Z,27.60
2019-02-25T11:50:31.774Z,27.00
2019-02-25T11:53:20.204Z,27.00
2019-02-25T11:56:08.624Z,26.30
2019-02-25T11:58:56.544Z,26.30
2019-02-25T12:01:45.339Z,26.80
2019-02-25T12:04:33.802Z,26.10
2019-02-25T12:07:21.954Z,27.40
2019-02-25T12:10:10.217Z,26.50
2019-02-25T12:12:58.310Z,27.20
2019-02-25T12:15:46.334Z,28.00
2019-02-25T12:18:35.502Z,27.60
2019-02-25T12:21:23.119Z,28.40
2019-02-25T12:24:11.326Z,27.50
2019-02-25T12:26:59.523Z,27.70
2019-02-25T12:29:47.585Z,28.00
2019-02-25T12:32:35.367Z,28.20
2019-02-25T12:35:23.970Z,28.90
2019-02-25T12:38:12.919Z,29.80
2019-02-25T12:41:01.468Z,30.50
2019-02-25T12:43:49.477Z,30.40
2019-02-25T12:46:37.838Z,30.00
2019-02-25T12:49:26.411Z,30.30
2019-02-25T12:52:15.420Z,30.40
2019-02-25T12:55:04.430Z,30.30
2019-02-25T12:57:52.637Z,30.40
2019-02-25T13:00:41.594Z,30.40
2019-02-25T13:03:30.564Z,31.10
2019-02-25T13:06:19.622Z,31.60
2019-02-25T13:09:13.149Z,31.40
2019-02-25T13:12:02.376Z,32.10
2019-02-25T13:14:50.919Z,32.20
2019-02-25T13:17:39.004Z,32.60
2019-02-25T13:20:27.171Z,32.30
2019-02-25T13:23:15.386Z,32.70
2019-02-25T13:26:07.662Z,33.50
2019-02-25T13:28:53.484Z,34.30
2019-02-25T13:31:41.986Z,34.10
2019-02-25T13:34:29.773Z,33.80
2019-02-25T13:37:18.890Z,34.20
2019-02-25T13:40:08.167Z,34.70
2019-02-25T13:42:56.488Z,34.50
2019-02-25T13:45:44.565Z,34.40
2019-02-25T13:48:32.710Z,34.60
2019-02-25T13:51:20.817Z,34.20
2019-02-25T13:54:09.131Z,33.40
2019-02-25T13:56:57.234Z,33.20
2019-02-25T13:59:45.062Z,32.90
2019-02-25T14:02:33.234Z,33.20
2019-02-25T14:05:21.670Z,32.80
2019-02-25T14:08:09.775Z,32.60
2019-02-25T14:10:58.366Z,33.30
2019-02-25T14:13:46.819Z,34.10
2019-02-25T14:16:35.063Z,34.30
2019-02-25T14:19:22.867Z,35.10
2019-02-25T14:22:10.638Z,35.60
2019-02-25T14:24:59.323Z,36.20
2019-02-25T14:27:47.688Z,36.40
2019-02-25T14:30:36.399Z,35.70
2019-02-25T14:33:24.042Z,36.50
2019-02-25T14:36:19.919Z,36.70
2019-02-25T14:39:24.807Z,37.30
2019-02-25T14:42:11.987Z,37.50
2019-02-25T14:45:01.301Z,38.00
2019-02-25T14:47:52.583Z,37.90
2019-02-25T14:50:39.130Z,37.90
2019-02-25T14:53:29.451Z,38.30
2019-02-25T14:56:16.918Z,38.80
2019-02-25T14:59:07.668Z,38.80
2019-02-25T15:01:56.876Z,39.30
2019-02-25T15:04:44.293Z,39.50
2019-02-25T15:07:32.667Z,39.60
2019-02-25T15:10:21.138Z,39.70
2019-02-25T15:13:10.630Z,39.50
2019-02-25T15:15:59.719Z,39.30
2019-02-25T15:18:47.511Z,39.80
2019-02-25T15:21:35.399Z,40.50
2019-02-25T15:24:24.297Z,41.00
2019-02-25T15:27:13.733Z,41.60
2019-02-25T15:30:02.262Z,41.80
2019-02-25T15:32:55.668Z,42.20
2019-02-25T15:35:41.676Z,42.20
2019-02-25T15:38:32.478Z,42.60
2019-02-25T15:41:19.438Z,42.70
2019-02-25T15:44:08.976Z,42.80
2019-02-25T15:47:00.179Z,43.20
2019-02-25T15:49:47.789Z,43.50
2019-02-25T15:52:40.009Z,43.60
2019-02-25T15:55:27.692Z,43.90
2019-02-25T15:58:16.687Z,44.20
2019-02-25T16:01:05.064Z,44.30
2019-02-25T16:03:56.518Z,44.60
2019-02-25T16:06:43.835Z,44.80
2019-02-25T16:09:32.338Z,44.80
2019-02-25T16:12:25.086Z,44.80
2019-02-25T16:15:14.975Z,45.10
2019-02-25T16:18:03.374Z,45.40
2019-02-25T16:20:51.634Z,45.80
2019-02-25T16:23:41.343Z,45.90
2019-02-25T16:26:31.908Z,46.00
2019-02-25T16:29:20.093Z,46.40
2019-02-25T16:32:09.561Z,47.10
2019-02-25T16:35:00.145Z,47.40
2019-02-25T16:37:48.550Z,47.70
2019-02-25T16:40:40.083Z,47.80
2019-02-25T16:43:28.210Z,48.00
2019-02-25T16:46:18.435Z,48.60
2019-02-25T16:49:06.810Z,49.00
2019-02-25T16:51:57.220Z,49.20
2019-02-25T16:54:44.861Z,49.30
2019-02-25T16:57:33.923Z,49.30
2019-02-25T17:00:25.297Z,49.40
2019-02-25T17:03:13.785Z,49.60
2019-02-25T17:06:04.516Z,49.70
2019-02-25T17:08:53.438Z,49.60
2019-02-25T17:11:43.929Z,49.90
2019-02-25T17:14:32.288Z,50.20
2019-02-25T17:17:22.824Z,50.30
2019-02-25T17:20:13.151Z,50.60
2019-02-25T17:23:01.551Z,50.90
2019-02-25T17:25:49.620Z,51.10
2019-02-25T17:28:38.504Z,50.80
2019-02-25T17:31:27.247Z,51.00
2019-02-25T17:34:16.579Z,51.10
2019-02-25T17:37:06.332Z,51.40
2019-02-25T17:39:58.470Z,52.00
2019-02-25T17:42:47.149Z,52.20
2019-02-25T17:45:37.322Z,52.40
2019-02-25T17:48:25.331Z,52.30
2019-02-25T17:51:13.621Z,52.40
2019-02-25T17:54:02.223Z,52.60
2019-02-25T17:56:51.874Z,52.70
2019-02-25T17:59:40.253Z,52.80
2019-02-25T18:02:29.583Z,53.20
2019-02-25T18:05:19.095Z,53.50
2019-02-25T18:08:13.360Z,54.00
2019-02-25T18:11:00.629Z,54.50
2019-02-25T18:13:51.238Z,54.80
2019-02-25T18:16:42.560Z,55.00
2019-02-25T18:19:30.446Z,55.10
2019-02-25T18:22:18.373Z,55.30
2019-02-25T18:25:08.127Z,55.60
2019-02-25T18:27:57.323Z,56.00
2019-02-25T18:33:43.661Z,56.40
2019-02-25T18:36:33.072Z,56.60
2019-02-25T18:39:23.034Z,56.80
2019-02-25T18:42:12.166Z,57.00
2019-02-25T18:45:01.865Z,57.40
2019-02-25T18:47:50.067Z,57.60
2019-02-25T18:50:39.528Z,58.00
2019-02-25T18:53:28.177Z,58.20
2019-02-25T18:56:16.876Z,58.40
2019-02-25T18:59:09.679Z,58.60
2019-02-25T19:01:56.396Z,58.60
2019-02-25T19:07:40.054Z,59.60
2019-02-25T19:10:28.741Z,59.90
2019-02-25T19:13:20.497Z,59.90
2019-02-25T19:16:08.982Z,60.10
2019-02-25T19:18:58.301Z,60.30
2019-02-25T19:21:47.919Z,60.50
2019-02-25T19:24:39.832Z,60.70
2019-02-25T19:27:27.759Z,60.90
2019-02-25T19:30:19.445Z,60.70
2019-02-25T19:33:11.198Z,61.30
2019-02-25T19:35:58.902Z,61.40
2019-02-25T19:38:50.194Z,61.50
2019-02-25T19:41:38.068Z,61.30
2019-02-25T19:44:27.770Z,60.90
2019-02-25T19:47:16.895Z,61.20
2019-02-25T19:50:09.806Z,61.50
2019-02-25T19:53:00.414Z,61.90
2019-02-25T19:55:49.173Z,62.20
2019-02-25T19:58:39.230Z,62.10
2019-02-25T20:01:27.672Z,62.40
2019-02-25T20:04:16.504Z,62.60
2019-02-25T20:07:06.557Z,62.20
2019-02-25T20:09:57.842Z,62.60
2019-02-25T20:12:45.996Z,62.70
2019-02-25T20:15:37.595Z,62.80
2019-02-25T20:18:25.026Z,63.20
2019-02-25T20:21:14.207Z,63.50
2019-02-25T20:24:02.896Z,63.70
2019-02-25T20:26:52.994Z,63.90
2019-02-25T20:29:42.506Z,64.00
2019-02-25T20:32:33.715Z,64.30
2019-02-25T20:35:24.368Z,64.40
2019-02-25T20:38:11.852Z,64.70
2019-02-25T20:41:00.563Z,64.70
2019-02-25T20:43:53.920Z,64.90
2019-02-25T20:46:40.039Z,64.80
2019-02-25T20:49:31.653Z,64.40
2019-02-25T20:52:21.894Z,64.30
2019-02-25T20:55:12.863Z,64.30
2019-02-25T20:58:00.555Z,64.30
2019-02-25T21:00:50.890Z,64.50
2019-02-25T21:03:41.514Z,64.60
2019-02-25T21:06:29.275Z,64.70
2019-02-25T21:09:17.446Z,64.70
2019-02-25T21:12:05.382Z,65.00
2019-02-25T21:14:53.758Z,65.20
2019-02-25T21:17:41.669Z,65.40
2019-02-25T21:20:31.438Z,65.70
2019-02-25T21:23:20.018Z,66.00
2019-02-25T21:26:09.322Z,65.90
2019-02-25T21:29:00.187Z,66.20
2019-02-25T21:31:49.655Z,66.20
2019-02-25T21:34:38.426Z,67.30
2019-02-25T21:37:28.851Z,66.10
2019-02-25T21:40:17.043Z,67.30
2019-02-25T21:43:05.439Z,67.50
2019-02-25T21:45:54.893Z,67.70
2019-02-25T21:48:42.977Z,67.90
2019-02-25T21:51:34.545Z,68.40
2019-02-25T21:54:20.967Z,68.30
2019-02-25T21:57:09.737Z,68.60
2019-02-25T21:59:58.879Z,68.40
2019-02-25T22:02:50.337Z,68.60
2019-02-25T22:05:38.228Z,68.60
2019-02-25T22:08:26.679Z,68.50
2019-02-25T22:11:17.745Z,68.40
2019-02-25T22:14:05.994Z,68.20
2019-02-25T22:16:54.445Z,68.10
2019-02-25T22:19:43.724Z,67.90
2019-02-25T22:22:35.189Z,68.00
2019-02-25T22:25:23.300Z,68.10
2019-02-25T22:28:11.194Z,68.30
2019-02-25T22:30:59.407Z,68.20
2019-02-25T22:33:48.173Z,68.10
2019-02-25T22:36:39.451Z,68.20
2019-02-25T22:39:27.875Z,68.60
2019-02-25T22:42:15.919Z,68.60
2019-02-25T22:45:03.905Z,68.40
2019-02-25T22:47:52.255Z,68.50
2019-02-25T22:50:40.677Z,68.30
2019-02-25T22:53:28.970Z,68.70
2019-02-25T22:56:18.362Z,68.90
2019-02-25T22:59:06.643Z,68.70
2019-02-25T23:01:54.927Z,68.90
2019-02-25T23:04:45.094Z,69.30
2019-02-25T23:07:33.958Z,69.40
2019-02-25T23:10:22.376Z,69.60
2019-02-25T23:13:11.807Z,69.90
2019-02-25T23:15:59.850Z,70.20
2019-02-25T23:18:48.310Z,70.20
2019-02-25T23:21:38.299Z,70.20
2019-02-25T23:24:29.974Z,70.00
2019-02-25T23:27:16.699Z,70.60
2019-02-25T23:30:08.386Z,70.70
2019-02-25T23:32:55.916Z,70.30
2019-02-25T23:35:46.597Z,70.20
2019-02-25T23:38:34.143Z,70.10
2019-02-25T23:41:22.791Z,70.20
2019-02-25T23:44:12.650Z,69.70
2019-02-25T23:47:01.922Z,69.90
2019-02-25T23:49:49.629Z,69.90
2019-02-25T23:52:37.638Z,70.10
2019-02-25T23:55:27.775Z,70.00
2019-02-25T23:58:17.217Z,70.00
